Time;durP1;ratioP1;P1;durP2;ratioP2;P2;SDS_P1;SDS_P2;PMS_P1;PMS_P2;Temp;Humidity;BMP_temperature;BMP_pressure;BME280_temperature;BME280_humidity;BME280_pressure;Samples;Min_cycle;Max_cycle;Signal;HPM_P1;HPM_P2
2023/08/07 00:02:00;;;;;;;0.20;0.20;;;;;;;11.83;100.00;101215.25;5055615;28;20028;-51
2023/08/07 00:04:25;;;;;;;0.20;0.20;;;;;;;11.80;100.00;101210.00;5054828;28;20056;-50
2023/08/07 00:06:50;;;;;;;0.20;0.20;;;;;;;11.79;100.00;101216.00;5055146;28;20465;-51
2023/08/07 00:09:16;;;;;;;0.10;0.10;;;;;;;11.76;100.00;101205.59;5055455;28;20033;-48
2023/08/07 00:11:41;;;;;;;0.10;0.10;;;;;;;11.73;100.00;101202.91;5054801;28;20048;-50
2023/08/07 00:14:06;;;;;;;0.20;0.20;;;;;;;11.73;100.00;101202.91;5054672;28;20032;-50
2023/08/07 00:16:32;;;;;;;0.20;0.20;;;;;;;11.67;100.00;101203.59;5054840;28;20508;-51
2023/08/07 00:18:57;;;;;;;0.10;0.10;;;;;;;11.68;100.00;101194.13;5055153;28;20044;-51
2023/08/07 00:21:23;;;;;;;0.15;0.15;;;;;;;11.68;100.00;101201.88;5054531;28;20083;-50
2023/08/07 00:23:49;;;;;;;0.10;0.10;;;;;;;11.68;100.00;101204.47;5055068;28;20082;-51
2023/08/07 00:26:15;;;;;;;0.20;0.20;;;;;;;11.68;100.00;101207.03;5054840;28;20032;-50
2023/08/07 00:28:40;;;;;;;0.10;0.10;;;;;;;11.65;100.00;101199.22;5054076;28;20033;-49
2023/08/07 00:31:06;;;;;;;0.20;0.20;;;;;;;11.66;100.00;101211.31;5055156;28;20033;-50
2023/08/07 00:33:31;;;;;;;0.20;0.20;;;;;;;11.68;100.00;101209.63;5053923;28;20036;-50
2023/08/07 00:35:56;;;;;;;0.10;0.10;;;;;;;11.67;100.00;101213.94;5054768;28;20033;-51
2023/08/07 00:38:22;;;;;;;0.20;0.20;;;;;;;11.67;100.00;101213.03;5054994;28;20027;-51
2023/08/07 00:40:47;;;;;;;0.20;0.20;;;;;;;11.70;100.00;101218.31;5054214;28;20029;-51
2023/08/07 00:43:12;;;;;;;0.20;0.20;;;;;;;11.72;100.00;101216.63;5054609;28;20041;-51
2023/08/07 00:45:42;;;;;;;0.20;0.20;;;;;;;11.72;100.00;101221.78;5054342;28;20049;-50
2023/08/07 00:48:07;;;;;;;0.13;0.13;;;;;;;11.72;100.00;101216.63;5054108;28;20059;-48
2023/08/07 00:50:33;;;;;;;0.20;0.20;;;;;;;11.70;100.00;101218.31;5054438;28;20068;-50
2023/08/07 00:52:59;;;;;;;0.20;0.20;;;;;;;11.70;100.00;101219.16;5054565;28;20423;-51
2023/08/07 00:55:25;;;;;;;0.10;0.10;;;;;;;11.73;100.00;101218.38;5053531;28;20460;-50
2023/08/07 00:57:51;;;;;;;0.20;0.20;;;;;;;11.73;100.00;101222.69;5054450;28;20025;-51
2023/08/07 01:00:17;;;;;;;0.20;0.20;;;;;;;11.70;100.00;101219.16;5054101;28;20074;-51
2023/08/07 01:02:42;;;;;;;0.20;0.20;;;;;;;11.70;100.00;101205.41;5053703;28;20030;-51
2023/08/07 01:05:08;;;;;;;0.10;0.10;;;;;;;11.70;100.00;101201.09;5054300;28;20028;-51
2023/08/07 01:07:33;;;;;;;0.20;0.20;;;;;;;11.69;100.00;101207.09;5053862;28;20021;-51
2023/08/07 01:10:03;;;;;;;0.15;0.15;;;;;;;11.71;100.00;101207.16;5053762;28;20444;-49
2023/08/07 01:12:41;;;;;;;0.20;0.20;;;;;;;11.69;100.00;101212.25;5052765;28;20029;-50
2023/08/07 01:15:16;;;;;;;0.15;0.15;;;;;;;11.71;100.00;101212.31;5053932;28;20035;-51
2023/08/07 01:17:44;;;;;;;0.20;0.20;;;;;;;11.72;100.00;101211.47;5053330;28;20037;-50
2023/08/07 01:20:11;;;;;;;0.20;0.20;;;;;;;11.73;100.00;101215.81;5054001;28;20029;-51
2023/08/07 01:22:36;;;;;;;0.17;0.17;;;;;;;11.75;100.00;101214.16;5053401;28;20371;-48
2023/08/07 01:25:02;;;;;;;0.20;0.20;;;;;;;11.79;100.00;101223.75;5053264;28;20029;-51
2023/08/07 01:27:38;;;;;;;0.20;0.20;;;;;;;11.79;100.00;101222.88;5053702;28;20037;-50
2023/08/07 01:30:26;;;;;;;0.20;0.20;;;;;;;11.83;100.00;101232.47;5053287;28;20021;-50
2023/08/07 01:33:04;;;;;;;0.20;0.20;;;;;;;11.86;100.00;101233.44;5053851;28;20075;-50
2023/08/07 01:35:38;;;;;;;0.20;0.20;;;;;;;11.86;100.00;101235.13;5053198;28;20086;-51
2023/08/07 01:38:05;;;;;;;0.20;0.20;;;;;;;11.84;100.00;101235.09;5053127;28;20448;-51
2023/08/07 01:40:31;;;;;;;0.20;0.20;;;;;;;11.85;100.00;101234.28;5053509;28;20021;-51
2023/08/07 01:42:57;;;;;;;0.20;0.20;;;;;;;11.83;100.00;101235.91;5053403;28;20025;-51
2023/08/07 01:45:23;;;;;;;0.20;0.20;;;;;;;11.83;100.00;101240.22;5052637;28;20103;-46
2023/08/07 01:47:49;;;;;;;0.20;0.20;;;;;;;11.85;100.00;101234.28;5053707;28;20024;-49
2023/08/07 01:50:14;;;;;;;0.20;0.20;;;;;;;11.86;100.00;101235.13;5053440;28;20500;-49
2023/08/07 01:52:39;;;;;;;0.20;0.20;;;;;;;11.84;100.00;101232.50;5052656;28;20471;-51
2023/08/07 01:55:05;;;;;;;0.20;0.20;;;;;;;11.84;100.00;101237.69;5053293;28;20607;-50
2023/08/07 01:57:31;;;;;;;0.15;0.15;;;;;;;11.84;100.00;101235.09;5052924;28;20033;-51
2023/08/07 01:59:56;;;;;;;0.20;0.20;;;;;;;11.84;100.00;101244.56;5052824;28;20043;-51
2023/08/07 02:02:21;;;;;;;0.20;0.20;;;;;;;11.79;100.00;101241.81;5053165;28;20029;-48
2023/08/07 02:04:46;;;;;;;0.13;0.13;;;;;;;11.75;100.00;101252.91;5052602;28;20410;-48
2023/08/07 02:07:12;;;;;;;0.20;0.20;;;;;;;11.72;100.00;101251.91;5052791;28;20036;-51
2023/08/07 02:09:37;;;;;;;0.13;0.13;;;;;;;11.71;100.00;101248.47;5053004;28;20021;-51
2023/08/07 02:12:03;;;;;;;0.20;0.20;;;;;;;11.70;100.00;101257.91;5052603;28;20025;-49
2023/08/07 02:14:28;;;;;;;0.20;0.20;;;;;;;11.66;100.00;101255.19;5052700;28;20473;-50
2023/08/07 02:16:54;;;;;;;0.20;0.20;;;;;;;11.66;100.00;101262.94;5053003;28;20021;-50
2023/08/07 02:19:19;;;;;;;0.10;0.10;;;;;;;11.64;100.00;101260.28;5052485;28;20033;-50
2023/08/07 02:21:44;;;;;;;0.10;0.10;;;;;;;11.60;100.00;101257.56;5052863;28;20601;-51
2023/08/07 02:24:09;;;;;;;0.10;0.10;;;;;;;11.56;100.00;101261.75;5052636;28;20372;-51
2023/08/07 02:26:35;;;;;;;0.20;0.20;;;;;;;11.53;100.00;101261.66;5051981;28;20033;-51
2023/08/07 02:29:00;;;;;;;0.13;0.13;;;;;;;11.52;100.00;101260.78;5052858;28;20025;-51
2023/08/07 02:31:25;;;;;;;0.20;0.20;;;;;;;11.53;100.00;101252.22;5052516;28;20029;-49
2023/08/07 02:33:51;;;;;;;0.20;0.20;;;;;;;11.55;100.00;101243.66;5052176;28;20043;-51
2023/08/07 02:36:16;;;;;;;0.20;0.20;;;;;;;11.52;100.00;101247.88;5052926;28;20021;-50
2023/08/07 02:38:41;;;;;;;0.20;0.20;;;;;;;11.52;100.00;101255.59;5052472;28;20399;-51
2023/08/07 02:41:06;;;;;;;0.20;0.20;;;;;;;11.58;100.00;101252.38;5052249;28;20029;-48
2023/08/07 02:43:34;;;;;;;0.13;0.13;;;;;;;11.56;100.00;101246.25;5052444;28;20056;-51
2023/08/07 02:45:59;;;;;;;0.20;0.20;;;;;;;11.62;100.00;101250.72;5052210;28;20498;-51
2023/08/07 02:48:25;;;;;;;0.20;0.20;;;;;;;11.64;100.00;101243.94;5051653;28;20160;-50
2023/08/07 02:50:51;;;;;;;0.20;0.20;;;;;;;11.66;100.00;101260.34;5052800;28;20517;-50
2023/08/07 02:53:16;;;;;;;0.10;0.10;;;;;;;11.66;100.00;101261.22;5052640;28;20017;-50
2023/08/07 02:55:43;;;;;;;0.20;0.20;;;;;;;11.67;100.00;101269.84;5051582;28;20028;-51
2023/08/07 02:58:09;;;;;;;0.20;0.20;;;;;;;11.64;100.00;101265.44;5052654;28;20052;-49
2023/08/07 03:00:35;;;;;;;0.20;0.20;;;;;;;11.65;100.00;101261.19;5052062;28;20021;-51
2023/08/07 03:03:00;;;;;;;0.20;0.20;;;;;;;11.66;100.00;101271.56;5051986;28;20025;-50
2023/08/07 03:05:26;;;;;;;0.20;0.20;;;;;;;11.66;100.00;101261.22;5052357;28;20029;-51
2023/08/07 03:07:51;;;;;;;0.10;0.10;;;;;;;11.68;100.00;101261.25;5052477;28;20025;-49
2023/08/07 03:10:16;;;;;;;0.20;0.20;;;;;;;11.65;100.00;101248.28;5052101;28;20441;-51
2023/08/07 03:12:41;;;;;;;0.20;0.20;;;;;;;11.65;100.00;101256.00;5052497;28;20433;-52
2023/08/07 03:15:07;;;;;;;0.20;0.20;;;;;;;11.65;100.00;101262.03;5052229;28;20021;-50
2023/08/07 03:17:32;;;;;;;0.20;0.20;;;;;;;11.66;100.00;101252.63;5051497;28;20063;-51
2023/08/07 03:19:58;;;;;;;0.15;0.15;;;;;;;11.65;100.00;101254.28;5052536;28;20029;-51
2023/08/07 03:22:23;;;;;;;0.10;0.10;;;;;;;11.65;100.00;101250.84;5051566;28;20377;-51
2023/08/07 03:24:48;;;;;;;0.10;0.10;;;;;;;11.63;100.00;101252.50;5052410;28;20468;-50
2023/08/07 03:27:14;;;;;;;0.20;0.20;;;;;;;11.63;100.00;101252.50;5052460;28;20025;-50
2023/08/07 03:29:40;;;;;;;0.20;0.20;;;;;;;11.61;100.00;101244.72;5051503;28;20472;-51
2023/08/07 03:32:05;;;;;;;0.20;0.20;;;;;;;11.62;100.00;101243.88;5052196;28;20024;-51
2023/08/07 03:34:30;;;;;;;0.20;0.20;;;;;;;11.60;100.00;101237.78;5052210;28;20035;-48
2023/08/07 03:36:56;;;;;;;0.20;0.20;;;;;;;11.61;100.00;101238.69;5055437;28;20104;-51
2023/08/07 03:39:21;;;;;;;0.20;0.20;;;;;;;11.63;100.00;101237.00;5056042;28;20021;-50
2023/08/07 03:41:46;;;;;;;0.20;0.20;;;;;;;11.64;100.00;101233.59;5055450;28;20096;-50
2023/08/07 03:44:12;;;;;;;0.20;0.20;;;;;;;11.65;100.00;101235.38;5055386;28;20033;-50
2023/08/07 03:46:37;;;;;;;0.20;0.20;;;;;;;11.70;100.00;101238.97;5055317;28;20033;-50
2023/08/07 03:49:02;;;;;;;0.20;0.20;;;;;;;11.72;100.00;101242.44;5055809;28;20033;-50
2023/08/07 03:51:29;;;;;;;0.17;0.17;;;;;;;11.75;100.00;101236.50;5055089;28;20078;-49
2023/08/07 03:53:55;;;;;;;0.20;0.20;;;;;;;11.78;100.00;101244.38;5055785;28;20029;-50
2023/08/07 03:56:20;;;;;;;0.20;0.20;;;;;;;11.81;100.00;101247.94;5055548;28;20028;-51
2023/08/07 03:58:45;;;;;;;0.17;0.17;;;;;;;11.82;100.00;101252.25;5054840;28;20037;-49
2023/08/07 04:01:10;;;;;;;0.20;0.20;;;;;;;11.84;100.00;101249.72;5055510;28;20021;-51
2023/08/07 04:03:37;;;;;;;0.13;0.13;;;;;;;11.85;100.00;101259.19;5055040;28;20025;-50
2023/08/07 04:06:05;;;;;;;0.20;0.20;;;;;;;11.84;100.00;101247.16;5055008;28;20043;-50
2023/08/07 04:08:30;;;;;;;0.20;0.20;;;;;;;11.82;100.00;101252.25;5055181;28;20480;-50
2023/08/07 04:11:00;;;;;;;0.13;0.13;;;;;;;11.84;100.00;101253.16;5055138;28;20029;-51
2023/08/07 04:13:27;;;;;;;0.20;0.20;;;;;;;11.88;100.00;101256.75;5054380;28;20035;-46
2023/08/07 04:15:52;;;;;;;0.13;0.13;;;;;;;11.89;100.00;101249.84;5055229;28;20053;-51
2023/08/07 04:18:17;;;;;;;0.20;0.20;;;;;;;11.89;100.00;101247.25;5055115;28;20060;-52
2023/08/07 04:20:48;;;;;;;0.10;0.10;;;;;;;11.89;100.00;101239.53;5054302;28;20025;-50
2023/08/07 04:23:13;;;;;;;0.20;0.20;;;;;;;11.91;100.00;101253.38;5055057;28;20029;-47
2023/08/07 04:25:38;;;;;;;0.10;0.10;;;;;;;11.93;100.00;101241.34;5054052;28;20037;-51
2023/08/07 04:28:03;;;;;;;0.10;0.10;;;;;;;11.93;100.00;101247.41;5055158;28;20021;-51
2023/08/07 04:30:29;;;;;;;0.10;0.10;;;;;;;11.94;100.00;101250.88;5054851;28;20366;-51
2023/08/07 04:32:55;;;;;;;0.10;0.10;;;;;;;11.97;100.00;101263.94;5054055;28;20860;-50
2023/08/07 04:35:20;;;;;;;0.20;0.20;;;;;;;11.97;100.00;101253.59;5055108;28;20090;-51
2023/08/07 04:37:46;;;;;;;0.10;0.10;;;;;;;11.99;100.00;101267.41;5054472;28;20029;-50
2023/08/07 04:40:11;;;;;;;0.20;0.20;;;;;;;11.99;100.00;101259.66;5054257;28;20037;-51
2023/08/07 04:42:36;;;;;;;0.20;0.20;;;;;;;11.99;100.00;101263.16;5054433;28;20540;-50
2023/08/07 04:45:02;;;;;;;0.20;0.20;;;;;;;11.98;100.00;101260.50;5054157;28;20037;-46
2023/08/07 04:47:28;;;;;;;0.10;0.10;;;;;;;11.99;100.00;101267.41;5053876;28;20037;-50
2023/08/07 04:49:53;;;;;;;0.10;0.10;;;;;;;12.02;100.00;101262.38;5054563;28;20441;-51
2023/08/07 04:52:19;;;;;;;0.20;0.20;;;;;;;12.05;100.00;101270.19;5054331;28;20457;-51
2023/08/07 04:54:44;;;;;;;0.20;0.20;;;;;;;12.09;100.00;101258.25;5053661;28;20021;-51
2023/08/07 04:57:09;;;;;;;0.20;0.20;;;;;;;12.13;100.00;101271.28;5054448;28;20072;-50
2023/08/07 04:59:35;;;;;;;0.10;0.10;;;;;;;12.15;100.00;101264.47;5053848;28;20025;-51
2023/08/07 05:02:01;;;;;;;0.15;0.15;;;;;;;12.18;100.00;101264.56;5054085;28;20049;-46
2023/08/07 05:04:26;;;;;;;0.13;0.13;;;;;;;12.21;100.00;101268.94;5054120;28;20033;-51
2023/08/07 05:06:51;;;;;;;0.20;0.20;;;;;;;12.23;100.00;101267.28;5054485;28;20036;-51
2023/08/07 05:09:17;;;;;;;0.10;0.10;;;;;;;12.26;100.00;101282.00;5053755;28;20434;-50
2023/08/07 05:11:42;;;;;;;0.20;0.20;;;;;;;12.27;100.00;101274.28;5054006;28;20072;-50
2023/08/07 05:14:07;;;;;;;0.20;0.20;;;;;;;12.29;100.00;101282.06;5053904;28;20028;-50
2023/08/07 05:16:32;;;;;;;0.20;0.20;;;;;;;12.30;100.00;101278.66;5053403;28;20039;-47
2023/08/07 05:18:58;;;;;;;0.10;0.10;;;;;;;12.32;100.00;101287.34;5053970;28;20020;-52
2023/08/07 05:21:23;;;;;;;0.10;0.10;;;;;;;12.34;100.00;101285.69;5053613;28;20040;-50
2023/08/07 05:23:52;;;;;;;0.20;0.20;;;;;;;12.35;100.00;101284.84;5053370;28;20028;-49
2023/08/07 05:26:18;;;;;;;0.20;0.20;;;;;;;12.34;100.00;101280.50;5053960;28;20496;-51
2023/08/07 05:28:43;;;;;;;0.20;0.20;;;;;;;12.34;100.00;101298.59;5053252;28;20476;-49
2023/08/07 05:31:08;;;;;;;0.20;0.20;;;;;;;12.32;100.00;101292.53;5053269;28;20461;-51
2023/08/07 05:33:34;;;;;;;0.10;0.10;;;;;;;12.32;100.00;101302.88;5053633;28;20032;-47
2023/08/07 05:35:59;;;;;;;0.20;0.20;;;;;;;12.31;100.00;101311.44;5052910;28;20025;-49
2023/08/07 05:38:24;;;;;;;0.20;0.20;;;;;;;12.23;100.00;101318.09;5053612;28;20103;-51
2023/08/07 05:40:50;;;;;;;0.20;0.20;;;;;;;12.12;100.00;101325.50;5053458;28;20017;-51
2023/08/07 05:43:17;;;;;;;0.20;0.20;;;;;;;12.05;100.00;101327.03;5052833;28;20853;-51
2023/08/07 05:45:44;;;;;;;0.20;0.20;;;;;;;11.98;100.00;101323.38;5053173;28;20049;-50
2023/08/07 05:48:10;;;;;;;0.20;0.20;;;;;;;11.96;100.00;101329.34;5053246;28;20512;-51
2023/08/07 05:50:35;;;;;;;0.10;0.10;;;;;;;11.93;100.00;101329.19;5052744;28;20104;-46
2023/08/07 05:53:00;;;;;;;0.20;0.20;;;;;;;11.90;100.00;101329.09;5053478;28;20100;-51
2023/08/07 05:55:26;;;;;;;0.10;0.10;;;;;;;11.89;100.00;101323.06;5052907;28;20072;-45
2023/08/07 05:57:51;;;;;;;0.20;0.20;;;;;;;11.89;100.00;101322.16;5052297;28;20024;-51
2023/08/07 06:00:19;;;;;;;0.20;0.20;;;;;;;11.90;100.00;101323.94;5053472;28;20427;-50
2023/08/07 06:02:44;;;;;;;0.20;0.20;;;;;;;11.90;100.00;101327.38;5052996;28;20087;-50
2023/08/07 06:05:12;;;;;;;0.20;0.20;;;;;;;11.92;100.00;101333.47;5052569;28;20028;-49
2023/08/07 06:07:37;;;;;;;0.20;0.20;;;;;;;11.93;100.00;101330.06;5052938;28;20028;-51
2023/08/07 06:10:03;;;;;;;0.10;0.10;;;;;;;11.96;100.00;101326.75;5053042;28;20021;-47
2023/08/07 06:12:28;;;;;;;0.10;0.10;;;;;;;12.00;100.00;101331.19;5052399;28;20025;-51
2023/08/07 06:14:53;;;;;;;0.20;0.20;;;;;;;12.01;100.00;101338.97;5053280;28;20381;-51
2023/08/07 06:17:19;;;;;;;0.20;0.20;;;;;;;12.04;100.00;101343.34;5053023;28;20029;-51
2023/08/07 06:19:44;;;;;;;0.20;0.20;;;;;;;12.05;100.00;101333.91;5052334;28;20043;-51
2023/08/07 06:22:09;;;;;;;0.10;0.10;;;;;;;12.05;100.00;101347.69;5052973;28;20094;-51
2023/08/07 06:24:35;;;;;;;0.20;0.20;;;;;;;12.10;100.00;101342.69;5052359;28;20037;-50
2023/08/07 06:27:02;;;;;;;0.17;0.17;;;;;;;12.13;100.00;101356.56;5052316;28;20043;-51
2023/08/07 06:29:27;;;;;;;0.20;0.20;;;;;;;12.17;100.00;101361.00;5052842;28;20025;-51
2023/08/07 06:31:53;;;;;;;0.20;0.20;;;;;;;12.20;100.00;101360.22;5052781;28;20373;-50
2023/08/07 06:34:18;;;;;;;0.20;0.20;;;;;;;12.22;100.00;101360.28;5052313;28;20025;-51
2023/08/07 06:36:43;;;;;;;0.10;0.10;;;;;;;12.25;100.00;101362.94;5052500;28;20078;-47
2023/08/07 06:39:09;;;;;;;0.20;0.20;;;;;;;12.33;100.00;101358.88;5052580;28;20017;-50
2023/08/07 06:41:35;;;;;;;0.10;0.10;;;;;;;12.42;100.00;101371.22;5051628;28;20389;-51
2023/08/07 06:44:01;;;;;;;0.10;0.10;;;;;;;12.51;100.00;101367.19;5052689;28;20106;-51
2023/08/07 06:46:27;;;;;;;0.13;0.13;;;;;;;12.71;100.00;101374.66;5051698;28;20518;-47
2023/08/07 06:48:53;;;;;;;0.20;0.20;;;;;;;12.87;100.00;101372.53;5052863;28;20025;-50
2023/08/07 06:51:18;;;;;;;0.17;0.17;;;;;;;12.96;100.00;101376.25;5052480;28;20025;-50
2023/08/07 06:53:43;;;;;;;0.10;0.10;;;;;;;12.99;100.00;101372.88;5051804;28;20057;-49
2023/08/07 06:56:09;;;;;;;0.20;0.20;;;;;;;13.09;100.00;101374.91;5052578;28;20112;-52
2023/08/07 06:58:34;;;;;;;0.10;0.10;;;;;;;13.17;100.00;101377.69;5051955;28;20025;-49
2023/08/07 07:00:59;;;;;;;0.20;0.20;;;;;;;13.21;100.00;101378.63;5052178;28;20021;-51
2023/08/07 07:03:25;;;;;;;0.13;0.13;;;;;;;13.32;100.00;101384.97;5052253;28;20086;-50
2023/08/07 07:05:50;;;;;;;0.10;0.10;;;;;;;13.48;100.00;101375.97;5052343;28;20103;-51
2023/08/07 07:08:15;;;;;;;0.10;0.10;;;;;;;13.58;100.00;101392.59;5051933;28;20104;-48
2023/08/07 07:10:41;;;;;;;0.10;0.10;;;;;;;13.48;100.00;101397.53;5054247;28;20051;-49
2023/08/07 07:13:07;;;;;;;0.10;0.10;;;;;;;13.55;100.00;101397.72;5056402;28;20021;-51
2023/08/07 07:15:33;;;;;;;0.17;0.17;;;;;;;13.43;100.00;101406.91;5055810;28;20029;-51
2023/08/07 07:17:59;;;;;;;0.20;0.20;;;;;;;13.45;100.00;101418.19;5056432;28;20025;-50
2023/08/07 07:20:26;;;;;;;0.15;0.15;;;;;;;13.36;100.00;101427.38;5055830;28;20380;-51
2023/08/07 07:22:51;;;;;;;0.17;0.17;;;;;;;13.22;100.00;101434.75;5055865;28;20025;-50
2023/08/07 07:25:17;;;;;;;0.10;0.10;;;;;;;13.00;100.00;101437.59;5055918;28;20400;-45
2023/08/07 07:27:42;;;;;;;0.10;0.10;;;;;;;12.85;100.00;101440.63;5055837;28;20507;-46
2023/08/07 07:30:08;;;;;;;0.10;0.10;;;;;;;12.80;100.00;101442.19;5055562;28;20029;-48
2023/08/07 07:32:33;;;;;;;0.10;0.10;;;;;;;12.68;100.00;101439.25;5056077;28;20021;-51
2023/08/07 07:34:59;;;;;;;0.20;0.20;;;;;;;12.68;100.00;101440.09;5056023;28;20078;-47
2023/08/07 07:37:24;;;;;;;0.20;0.20;;;;;;;12.64;100.00;101446.03;5055393;28;20071;-51
2023/08/07 07:39:49;;;;;;;0.10;0.10;;;;;;;12.54;100.00;101444.00;5055984;28;20053;-50
2023/08/07 07:42:15;;;;;;;0.10;0.10;;;;;;;12.46;100.00;101456.69;5055972;28;20435;-51
2023/08/07 07:44:40;;;;;;;0.20;0.20;;;;;;;12.42;100.00;101460.00;5054895;28;20060;-52
2023/08/07 07:47:06;;;;;;;0.20;0.20;;;;;;;12.49;100.00;101454.16;5055827;28;20029;-51
2023/08/07 07:49:32;;;;;;;0.10;0.10;;;;;;;12.49;100.00;101455.91;5055351;28;20025;-51
2023/08/07 07:51:58;;;;;;;0.17;0.17;;;;;;;12.45;100.00;101465.25;5055744;28;20040;-52
2023/08/07 07:54:23;;;;;;;0.20;0.20;;;;;;;12.44;100.00;101462.63;5055091;28;20021;-50
2023/08/07 07:56:49;;;;;;;0.10;0.10;;;;;;;12.46;100.00;101459.25;5055270;28;20111;-51
2023/08/07 07:59:14;;;;;;;0.10;0.10;;;;;;;12.64;100.00;101456.38;5055728;28;20091;-50
2023/08/07 08:01:40;;;;;;;0.10;0.10;;;;;;;12.74;100.00;101459.22;5055134;28;20033;-51
2023/08/07 08:04:05;;;;;;;0.10;0.10;;;;;;;12.83;100.00;101456.91;5054937;28;20102;-47
2023/08/07 08:06:30;;;;;;;0.10;0.10;;;;;;;12.93;100.00;101460.66;5055282;28;20032;-52
2023/08/07 08:08:56;;;;;;;0.10;0.10;;;;;;;13.24;100.00;101451.22;5055152;28;20428;-51
2023/08/07 08:11:21;;;;;;;0.17;0.17;;;;;;;13.26;100.00;101457.28;5054797;28;20052;-52
2023/08/07 08:13:47;;;;;;;0.10;0.10;;;;;;;13.28;100.00;101460.81;5055046;28;20021;-51
2023/08/07 08:16:12;;;;;;;0.10;0.10;;;;;;;13.52;100.00;101470.13;5054951;28;20453;-50
2023/08/07 08:18:37;;;;;;;0.20;0.20;;;;;;;13.55;100.00;101467.63;5054554;28;20029;-49
2023/08/07 08:21:03;;;;;;;0.55;0.20;;;;;;;13.70;100.00;101467.16;5054825;28;20017;-51
2023/08/07 08:23:28;;;;;;;0.10;0.10;;;;;;;13.78;100.00;101469.13;5054562;28;20024;-52
2023/08/07 08:25:54;;;;;;;0.10;0.10;;;;;;;13.90;100.00;101465.09;5054391;28;20017;-52
2023/08/07 08:28:19;;;;;;;0.20;0.20;;;;;;;14.03;100.00;101461.97;5055276;28;20468;-52
2023/08/07 08:30:44;;;;;;;0.10;0.10;;;;;;;14.08;100.00;101462.97;5054714;28;20419;-51
2023/08/07 08:33:12;;;;;;;0.10;0.10;;;;;;;14.22;100.00;101465.03;5054345;28;20036;-52
2023/08/07 08:35:38;;;;;;;0.10;0.10;;;;;;;14.21;100.00;101461.56;5054840;28;20021;-50
2023/08/07 08:38:03;;;;;;;0.10;0.10;;;;;;;14.59;100.00;101471.06;5054533;28;20029;-52
2023/08/07 08:40:30;;;;;;;0.10;0.10;;;;;;;15.00;100.00;101468.56;5053798;28;20022;-52
2023/08/07 08:42:57;;;;;;;0.10;0.10;;;;;;;15.13;100.00;101468.00;5054653;28;20044;-48
2023/08/07 08:45:25;;;;;;;0.10;0.10;;;;;;;15.20;100.00;101473.31;5054285;28;20044;-51
2023/08/07 08:47:51;;;;;;;0.20;0.20;;;;;;;15.20;100.00;101478.50;5054349;28;20025;-49
2023/08/07 08:50:17;;;;;;;0.10;0.10;;;;;;;15.22;100.00;101490.69;5054518;28;20029;-52
2023/08/07 08:52:44;;;;;;;0.20;0.20;;;;;;;15.05;100.00;101492.91;5054308;28;20028;-52
2023/08/07 08:55:11;;;;;;;;;;;;;;;15.21;100.00;101490.63;5054800;28;20036;-51
2023/08/07 08:57:37;;;;;;;0.10;0.10;;;;;;;14.88;100.00;101491.66;5054017;28;20430;-50
2023/08/07 09:00:07;;;;;;;0.10;0.10;;;;;;;15.08;100.00;101487.78;5053866;28;20033;-51
2023/08/07 09:02:33;;;;;;;0.10;0.10;;;;;;;15.51;100.00;101486.91;5054146;28;20021;-52
2023/08/07 09:04:58;;;;;;;0.10;0.10;;;;;;;15.54;97.89;101494.75;5054241;28;20033;-52
2023/08/07 09:07:23;;;;;;;0.10;0.10;;;;;;;15.61;100.00;101488.84;5053497;28;20029;-50
2023/08/07 09:09:50;;;;;;;0.10;0.10;;;;;;;15.50;98.59;101490.34;5054596;28;20050;-52
2023/08/07 09:12:26;;;;;;;0.10;0.10;;;;;;;15.50;100.00;101500.75;5054365;28;20094;-53
2023/08/07 09:14:55;;;;;;;0.10;0.10;;;;;;;15.29;100.00;101504.66;5053917;28;20532;-52
2023/08/07 09:17:24;;;;;;;0.10;0.10;;;;;;;15.43;100.00;101504.94;5054440;28;20032;-51
2023/08/07 09:19:49;;;;;;;0.10;0.10;;;;;;;15.48;96.77;101499.00;5053955;28;20025;-50
2023/08/07 09:22:15;;;;;;;0.10;0.10;;;;;;;15.69;100.00;101508.03;5053608;28;20028;-53
2023/08/07 09:24:41;;;;;;;0.10;0.10;;;;;;;15.80;93.16;101509.13;5053898;28;20078;-50
2023/08/07 09:27:09;;;;;;;0.10;0.10;;;;;;;15.98;96.59;101502.53;5054056;28;20062;-52
2023/08/07 09:29:35;;;;;;;0.10;0.10;;;;;;;16.22;92.22;101509.03;5053338;28;20033;-48
2023/08/07 09:32:13;;;;;;;0.10;0.10;;;;;;;16.58;94.69;101502.66;5053347;28;20023;-51
2023/08/07 09:34:40;;;;;;;0.10;0.10;;;;;;;16.84;86.80;101504.78;5053197;28;20033;-52
2023/08/07 09:37:06;;;;;;;0.10;0.10;;;;;;;17.02;82.94;101505.06;5053395;28;20020;-52
2023/08/07 09:39:32;;;;;;;0.10;0.10;;;;;;;17.14;80.17;101506.94;5053412;28;20029;-48
2023/08/07 09:41:57;;;;;;;0.10;0.10;;;;;;;17.02;81.04;101507.66;5053747;28;20024;-49
2023/08/07 09:44:22;;;;;;;0.10;0.10;;;;;;;16.86;78.19;101513.47;5052676;28;20041;-47
2023/08/07 09:46:48;;;;;;;0.10;0.10;;;;;;;16.95;81.12;101522.31;5053550;28;20017;-47
2023/08/07 09:49:13;;;;;;;0.10;0.10;;;;;;;17.10;80.57;101529.47;5052818;28;20075;-47
2023/08/07 09:51:43;;;;;;;0.10;0.10;;;;;;;17.33;76.61;101521.06;5053168;28;20410;-49
2023/08/07 09:54:09;;;;;;;0.05;0.05;;;;;;;17.67;79.03;101526.69;5053296;28;20032;-52
2023/08/07 09:56:35;;;;;;;0.10;0.10;;;;;;;17.55;75.09;101532.63;5052501;28;20025;-51
2023/08/07 09:59:00;;;;;;;0.00;0.00;;;;;;;17.61;70.77;101534.41;5053370;28;20476;-51
2023/08/07 10:01:26;;;;;;;0.10;0.10;;;;;;;18.02;75.25;101534.03;5052741;28;20025;-51
2023/08/07 10:03:51;;;;;;;0.10;0.10;;;;;;;17.97;71.65;101533.09;5052743;28;20083;-52
2023/08/07 10:06:18;;;;;;;0.03;0.03;;;;;;;18.17;63.00;101533.31;5053452;28;20067;-51
2023/08/07 10:08:45;;;;;;;0.10;0.10;;;;;;;18.87;66.01;101541.66;5052911;28;20074;-50
2023/08/07 10:11:11;;;;;;;0.10;0.10;;;;;;;18.87;69.22;101539.91;5052747;28;20435;-51
2023/08/07 10:13:37;;;;;;;0.10;0.10;;;;;;;18.55;68.46;101539.69;5052808;28;20032;-51
2023/08/07 10:16:03;;;;;;;0.00;0.00;;;;;;;19.15;65.96;101539.25;5052848;28;20036;-49
2023/08/07 10:18:28;;;;;;;0.00;0.00;;;;;;;19.84;62.75;101541.28;5052491;28;20017;-50
2023/08/07 10:20:55;;;;;;;0.00;0.00;;;;;;;20.85;54.70;101544.78;5052950;28;20020;-47
2023/08/07 10:23:20;;;;;;;0.00;0.00;;;;;;;20.79;50.26;101548.31;5052743;28;20385;-50
2023/08/07 10:25:50;;;;;;;0.00;0.00;;;;;;;21.41;48.98;101547.25;5052144;28;20071;-52
2023/08/07 10:28:18;;;;;;;0.03;0.03;;;;;;;21.08;46.20;101549.97;5052916;28;20025;-51
2023/08/07 10:30:44;;;;;;;0.00;0.00;;;;;;;21.80;46.65;101554.06;5052388;28;20067;-50
2023/08/07 10:33:11;;;;;;;0.10;0.10;;;;;;;21.85;45.16;101559.31;5052469;28;20028;-51
2023/08/07 10:35:37;;;;;;;0.00;0.00;;;;;;;22.40;44.14;101565.06;5052514;28;20033;-50
2023/08/07 10:38:10;;;;;;;0.00;0.00;;;;;;;22.30;44.81;101572.13;5052710;28;20017;-52
2023/08/07 10:40:58;;;;;;;0.00;0.00;;;;;;;22.64;46.84;101577.13;5052150;28;20025;-52
2023/08/07 10:43:25;;;;;;;0.00;0.00;;;;;;;22.75;43.51;101564.78;5051936;28;20079;-51
2023/08/07 10:45:50;;;;;;;0.00;0.00;;;;;;;23.13;43.23;101568.72;5051934;28;20055;-52
2023/08/07 10:48:20;;;;;;;0.00;0.00;;;;;;;22.75;40.26;101569.13;5052704;28;20025;-52
2023/08/07 10:50:57;;;;;;;0.00;0.00;;;;;;;23.06;41.25;101569.72;5052126;28;20489;-52
2023/08/07 10:53:37;;;;;;;0.00;0.00;;;;;;;23.26;43.15;101572.13;5051867;28;20403;-49
2023/08/07 10:56:04;;;;;;;0.00;0.00;;;;;;;23.70;39.41;101580.34;5052840;28;20069;-52
2023/08/07 10:58:32;;;;;;;0.00;0.00;;;;;;;23.85;38.90;101576.63;5052198;28;20115;-49
2023/08/07 11:01:19;;;;;;;0.00;0.00;;;;;;;23.77;40.19;101579.38;5051970;28;20480;-52
2023/08/07 11:04:15;;;;;;;0.20;0.00;;;;;;;22.45;40.48;101581.66;5051861;28;20054;-47
2023/08/07 11:06:41;;;;;;;0.00;0.00;;;;;;;21.41;43.04;101573.47;5046947;28;20042;-48
2023/08/07 11:09:08;;;;;;;0.00;0.00;;;;;;;21.15;44.46;101582.28;5052685;28;20028;-47
2023/08/07 11:11:44;;;;;;;0.00;0.00;;;;;;;21.02;47.17;101584.09;5052007;28;20075;-47
2023/08/07 11:14:11;;;;;;;0.00;0.00;;;;;;;22.03;43.26;101579.31;5051863;28;20035;-49
2023/08/07 11:16:37;;;;;;;0.00;0.00;;;;;;;22.30;44.61;101580.88;5051913;28;20029;-51